Terminal Aerodrome Forecast
Issued by NWS Pittsburgh, PA

Current Version | Previous Version | Graphics & Text | Print | Product List | Glossary On
Versions: 1 2 3 4 5 6 7 8 9 10 11 12 13 14 15 16 17 18 19 20 21 22 23 24 25 26 27 28 29 30
000
FTUS41 KPBZ 161125
TAFPIT
TAF
KPIT 161125Z 1612/1718 26012G22KT P6SM VCSH SCT015 OVC025
      TEMPO 1612/1614 BKN035
     FM161500 27015G25KT P6SM VCSH OVC025
     FM162300 29012KT P6SM OVC025
     FM170300 29010KT P6SM BKN035
     FM170800 30005KT P6SM SCT035
     FM171500 22005KT P6SM SCT100=

USA.gov is the U.S. government's official web portal to all federal, state and local government web resources and services.